Terminal Aerodrome Forecast
Issued by NWS

Home | Current Version | Previous Version | Text Only | Print | Product List | Glossary On
Versions: 1 2 3 4 5 6 7 8 9 10 11 12 13 14 15 16 17 18
000
FTUS43 KBIS 281120
TAFDIK
TAF
KDIK 281120Z 2812/2912 29009KT P6SM SKC
     FM281400 31013KT P6SM FEW070 FEW200
     FM281700 31020G30KT P6SM FEW070 BKN100
     FM282300 34020G30KT P6SM FEW070 FEW200
     FM290200 34014KT P6SM FEW060 FEW200
     FM290800 31010KT P6SM FEW045 FEW140=

USA.gov is the U.S. government's official web portal to all federal, state and local government web resources and services.